Big Lake, Minnesota
Current Conditions -  °F | °C
As of 11:15 AM on Thursday 18 Dec 2014 (Local Time) from KCFE Reporting Station
Light Snow Light Snow  
Wind Chill: 20°   Ceiling: 1600
Heat Index: 20°   Visibility: 1.5mi
Dew Point: 16°   Wind: 0mph
Humidity: 85%   Direction: NA
Pressure: 30.31"   Gusts: NA
Location:  45.33°N, 93.75°W
Report Text: KCFE 181715Z AUTO 00000KT 1 1/2SM -SN SCT010 BKN016 OVC022 M07/M09 A3031 RMK AO2 T10691090
Loading
Personal Weather Stations






























Interactive Weather Map New forecast layout! Learn more

10-Day Weather Forecast

Advertisements
Track Severe Weather on mobile